sensor_id;sensor_type;location;lat;lon;timestamp;P1;durP1;ratioP1;P2;durP2;ratioP2
20298;SDS011;10308;42.688;23.256;2023-08-06T00:02:16;3.05;;;2.60;;
20298;SDS011;10308;42.688;23.256;2023-08-06T00:04:43;2.72;;;2.58;;
20298;SDS011;10308;42.688;23.256;2023-08-06T00:07:11;3.03;;;2.65;;
20298;SDS011;10308;42.688;23.256;2023-08-06T00:09:39;2.70;;;2.50;;
20298;SDS011;10308;42.688;23.256;2023-08-06T00:12:07;3.47;;;2.42;;
20298;SDS011;10308;42.688;23.256;2023-08-06T00:14:34;2.67;;;2.47;;
20298;SDS011;10308;42.688;23.256;2023-08-06T00:17:03;3.40;;;2.67;;
20298;SDS011;10308;42.688;23.256;2023-08-06T00:19:31;2.50;;;2.30;;
20298;SDS011;10308;42.688;23.256;2023-08-06T00:21:58;2.78;;;2.58;;
20298;SDS011;10308;42.688;23.256;2023-08-06T00:24:24;2.75;;;2.45;;
20298;SDS011;10308;42.688;23.256;2023-08-06T00:26:52;2.83;;;2.60;;
20298;SDS011;10308;42.688;23.256;2023-08-06T00:29:21;2.67;;;2.47;;
20298;SDS011;10308;42.688;23.256;2023-08-06T00:31:47;2.95;;;2.75;;
20298;SDS011;10308;42.688;23.256;2023-08-06T00:34:16;2.80;;;2.60;;
20298;SDS011;10308;42.688;23.256;2023-08-06T00:36:47;2.95;;;2.67;;
20298;SDS011;10308;42.688;23.256;2023-08-06T00:39:15;2.83;;;2.63;;
20298;SDS011;10308;42.688;23.256;2023-08-06T00:41:43;3.30;;;2.63;;
20298;SDS011;10308;42.688;23.256;2023-08-06T00:44:11;2.67;;;2.55;;
20298;SDS011;10308;42.688;23.256;2023-08-06T00:46:39;3.30;;;3.00;;
20298;SDS011;10308;42.688;23.256;2023-08-06T00:49:07;3.03;;;2.80;;
20298;SDS011;10308;42.688;23.256;2023-08-06T00:51:37;3.10;;;2.55;;
20298;SDS011;10308;42.688;23.256;2023-08-06T00:54:05;2.80;;;2.60;;
20298;SDS011;10308;42.688;23.256;2023-08-06T00:56:34;3.17;;;2.72;;
20298;SDS011;10308;42.688;23.256;2023-08-06T00:59:03;2.95;;;2.75;;
20298;SDS011;10308;42.688;23.256;2023-08-06T01:01:31;3.05;;;2.80;;
20298;SDS011;10308;42.688;23.256;2023-08-06T01:03:59;3.88;;;3.03;;
20298;SDS011;10308;42.688;23.256;2023-08-06T01:06:33;3.75;;;3.40;;
20298;SDS011;10308;42.688;23.256;2023-08-06T01:09:08;3.70;;;3.40;;
20298;SDS011;10308;42.688;23.256;2023-08-06T01:11:44;4.03;;;3.63;;
20298;SDS011;10308;42.688;23.256;2023-08-06T01:14:21;3.55;;;3.25;;
20298;SDS011;10308;42.688;23.256;2023-08-06T01:16:53;3.88;;;3.47;;
20298;SDS011;10308;42.688;23.256;2023-08-06T01:19:22;3.58;;;3.28;;
20298;SDS011;10308;42.688;23.256;2023-08-06T01:21:51;3.35;;;3.10;;
20298;SDS011;10308;42.688;23.256;2023-08-06T01:24:21;3.50;;;3.20;;
20298;SDS011;10308;42.688;23.256;2023-08-06T01:26:51;4.22;;;3.00;;
20298;SDS011;10308;42.688;23.256;2023-08-06T01:29:26;3.38;;;3.08;;
20298;SDS011;10308;42.688;23.256;2023-08-06T01:31:57;3.45;;;3.10;;
20298;SDS011;10308;42.688;23.256;2023-08-06T01:34:27;3.60;;;2.95;;
20298;SDS011;10308;42.688;23.256;2023-08-06T01:37:02;3.45;;;3.15;;
20298;SDS011;10308;42.688;23.256;2023-08-06T01:39:33;2.97;;;2.78;;
20298;SDS011;10308;42.688;23.256;2023-08-06T01:42:02;3.45;;;3.05;;
20298;SDS011;10308;42.688;23.256;2023-08-06T01:44:30;3.60;;;3.30;;
20298;SDS011;10308;42.688;23.256;2023-08-06T01:46:58;3.30;;;3.00;;
20298;SDS011;10308;42.688;23.256;2023-08-06T01:49:29;3.63;;;2.88;;
20298;SDS011;10308;42.688;23.256;2023-08-06T01:52:01;3.38;;;3.05;;
20298;SDS011;10308;42.688;23.256;2023-08-06T01:54:31;3.13;;;2.92;;
20298;SDS011;10308;42.688;23.256;2023-08-06T01:57:01;3.28;;;2.97;;
20298;SDS011;10308;42.688;23.256;2023-08-06T01:59:30;3.55;;;3.08;;
20298;SDS011;10308;42.688;23.256;2023-08-06T02:01:58;3.20;;;2.92;;
20298;SDS011;10308;42.688;23.256;2023-08-06T02:04:26;3.05;;;2.85;;
20298;SDS011;10308;42.688;23.256;2023-08-06T02:06:54;3.58;;;3.28;;
20298;SDS011;10308;42.688;23.256;2023-08-06T02:09:23;3.13;;;2.83;;
20298;SDS011;10308;42.688;23.256;2023-08-06T02:11:51;3.30;;;3.00;;
20298;SDS011;10308;42.688;23.256;2023-08-06T02:14:19;3.75;;;3.05;;
20298;SDS011;10308;42.688;23.256;2023-08-06T02:16:47;3.50;;;3.20;;
20298;SDS011;10308;42.688;23.256;2023-08-06T02:19:17;3.80;;;3.30;;
20298;SDS011;10308;42.688;23.256;2023-08-06T02:21:45;3.60;;;2.85;;
20298;SDS011;10308;42.688;23.256;2023-08-06T02:24:14;4.45;;;3.70;;
20298;SDS011;10308;42.688;23.256;2023-08-06T02:26:42;4.88;;;2.95;;
20298;SDS011;10308;42.688;23.256;2023-08-06T02:29:10;5.03;;;3.42;;
20298;SDS011;10308;42.688;23.256;2023-08-06T02:31:38;5.35;;;3.25;;
20298;SDS011;10308;42.688;23.256;2023-08-06T02:34:09;3.60;;;2.90;;
20298;SDS011;10308;42.688;23.256;2023-08-06T02:36:37;3.90;;;2.80;;
20298;SDS011;10308;42.688;23.256;2023-08-06T02:39:05;3.38;;;2.97;;
20298;SDS011;10308;42.688;23.256;2023-08-06T02:41:32;4.63;;;3.30;;
20298;SDS011;10308;42.688;23.256;2023-08-06T02:44:08;3.35;;;3.05;;
20298;SDS011;10308;42.688;23.256;2023-08-06T02:46:35;3.05;;;2.60;;
20298;SDS011;10308;42.688;23.256;2023-08-06T02:49:03;3.00;;;2.78;;
20298;SDS011;10308;42.688;23.256;2023-08-06T02:51:31;2.90;;;2.70;;
20298;SDS011;10308;42.688;23.256;2023-08-06T02:53:59;3.00;;;2.80;;
20298;SDS011;10308;42.688;23.256;2023-08-06T02:56:29;4.90;;;3.03;;
20298;SDS011;10308;42.688;23.256;2023-08-06T02:58:58;3.08;;;2.65;;
20298;SDS011;10308;42.688;23.256;2023-08-06T03:01:29;2.70;;;2.50;;
20298;SDS011;10308;42.688;23.256;2023-08-06T03:03:56;2.80;;;2.60;;
20298;SDS011;10308;42.688;23.256;2023-08-06T03:06:24;2.97;;;2.78;;
20298;SDS011;10308;42.688;23.256;2023-08-06T03:08:54;3.83;;;3.53;;
20298;SDS011;10308;42.688;23.256;2023-08-06T03:11:23;3.00;;;2.80;;
20298;SDS011;10308;42.688;23.256;2023-08-06T03:13:51;2.83;;;2.63;;
20298;SDS011;10308;42.688;23.256;2023-08-06T03:16:21;2.75;;;2.55;;
20298;SDS011;10308;42.688;23.256;2023-08-06T03:18:53;2.88;;;2.67;;
20298;SDS011;10308;42.688;23.256;2023-08-06T03:21:21;2.70;;;2.50;;
20298;SDS011;10308;42.688;23.256;2023-08-06T03:23:48;3.90;;;2.92;;
20298;SDS011;10308;42.688;23.256;2023-08-06T03:26:16;3.20;;;2.88;;
20298;SDS011;10308;42.688;23.256;2023-08-06T03:28:44;2.97;;;2.78;;
20298;SDS011;10308;42.688;23.256;2023-08-06T03:31:12;3.80;;;2.72;;
20298;SDS011;10308;42.688;23.256;2023-08-06T03:33:39;3.22;;;2.90;;
20298;SDS011;10308;42.688;23.256;2023-08-06T03:36:11;3.20;;;3.00;;
20298;SDS011;10308;42.688;23.256;2023-08-06T03:38:41;2.80;;;2.60;;
20298;SDS011;10308;42.688;23.256;2023-08-06T03:41:09;2.90;;;2.70;;
20298;SDS011;10308;42.688;23.256;2023-08-06T03:43:36;3.15;;;2.85;;
20298;SDS011;10308;42.688;23.256;2023-08-06T03:46:04;3.30;;;2.55;;
20298;SDS011;10308;42.688;23.256;2023-08-06T03:48:32;3.35;;;3.00;;
20298;SDS011;10308;42.688;23.256;2023-08-06T03:51:00;2.88;;;2.67;;
20298;SDS011;10308;42.688;23.256;2023-08-06T03:53:30;3.33;;;3.03;;
20298;SDS011;10308;42.688;23.256;2023-08-06T03:55:57;3.20;;;3.00;;
20298;SDS011;10308;42.688;23.256;2023-08-06T03:58:27;3.28;;;3.00;;
20298;SDS011;10308;42.688;23.256;2023-08-06T04:00:59;4.30;;;3.00;;
20298;SDS011;10308;42.688;23.256;2023-08-06T04:03:27;3.25;;;3.05;;
20298;SDS011;10308;42.688;23.256;2023-08-06T04:05:55;3.38;;;3.15;;
20298;SDS011;10308;42.688;23.256;2023-08-06T04:08:22;3.28;;;3.05;;
20298;SDS011;10308;42.688;23.256;2023-08-06T04:10:52;3.75;;;3.40;;
20298;SDS011;10308;42.688;23.256;2023-08-06T04:13:19;3.20;;;2.90;;
20298;SDS011;10308;42.688;23.256;2023-08-06T04:15:50;3.58;;;3.33;;
20298;SDS011;10308;42.688;23.256;2023-08-06T04:18:18;3.22;;;2.92;;
20298;SDS011;10308;42.688;23.256;2023-08-06T04:20:48;3.42;;;3.10;;
20298;SDS011;10308;42.688;23.256;2023-08-06T04:23:19;3.65;;;3.45;;
20298;SDS011;10308;42.688;23.256;2023-08-06T04:25:48;6.95;;;5.50;;
20298;SDS011;10308;42.688;23.256;2023-08-06T04:28:20;5.30;;;4.90;;
20298;SDS011;10308;42.688;23.256;2023-08-06T04:30:49;5.82;;;5.40;;
20298;SDS011;10308;42.688;23.256;2023-08-06T04:33:20;5.13;;;4.72;;
20298;SDS011;10308;42.688;23.256;2023-08-06T04:35:53;4.15;;;3.85;;
20298;SDS011;10308;42.688;23.256;2023-08-06T04:38:23;4.20;;;3.85;;
20298;SDS011;10308;42.688;23.256;2023-08-06T04:40:51;4.05;;;3.75;;
20298;SDS011;10308;42.688;23.256;2023-08-06T04:43:20;3.90;;;3.60;;
20298;SDS011;10308;42.688;23.256;2023-08-06T04:45:48;3.85;;;3.50;;
20298;SDS011;10308;42.688;23.256;2023-08-06T04:48:17;3.58;;;3.38;;
20298;SDS011;10308;42.688;23.256;2023-08-06T04:50:45;3.95;;;3.63;;
20298;SDS011;10308;42.688;23.256;2023-08-06T04:53:14;3.60;;;3.30;;
20298;SDS011;10308;42.688;23.256;2023-08-06T04:55:41;3.75;;;3.47;;
20298;SDS011;10308;42.688;23.256;2023-08-06T04:58:09;3.60;;;3.30;;
20298;SDS011;10308;42.688;23.256;2023-08-06T05:00:39;3.47;;;3.17;;
20298;SDS011;10308;42.688;23.256;2023-08-06T05:03:09;3.45;;;3.15;;
20298;SDS011;10308;42.688;23.256;2023-08-06T05:05:40;3.47;;;3.03;;
20298;SDS011;10308;42.688;23.256;2023-08-06T05:08:13;3.40;;;3.20;;
20298;SDS011;10308;42.688;23.256;2023-08-06T05:10:42;4.20;;;3.90;;
20298;SDS011;10308;42.688;23.256;2023-08-06T05:13:11;4.70;;;4.30;;
20298;SDS011;10308;42.688;23.256;2023-08-06T05:15:40;4.93;;;4.53;;
20298;SDS011;10308;42.688;23.256;2023-08-06T05:18:12;5.65;;;4.93;;
20298;SDS011;10308;42.688;23.256;2023-08-06T05:20:42;5.88;;;5.35;;
20298;SDS011;10308;42.688;23.256;2023-08-06T05:23:10;6.50;;;5.90;;
20298;SDS011;10308;42.688;23.256;2023-08-06T05:25:41;8.32;;;6.45;;
20298;SDS011;10308;42.688;23.256;2023-08-06T05:28:10;8.52;;;7.72;;
20298;SDS011;10308;42.688;23.256;2023-08-06T05:30:39;8.52;;;7.13;;
20298;SDS011;10308;42.688;23.256;2023-08-06T05:33:08;8.88;;;8.07;;
20298;SDS011;10308;42.688;23.256;2023-08-06T05:35:36;8.40;;;7.70;;
20298;SDS011;10308;42.688;23.256;2023-08-06T05:38:06;7.38;;;6.78;;
20298;SDS011;10308;42.688;23.256;2023-08-06T05:40:34;7.07;;;6.47;;
20298;SDS011;10308;42.688;23.256;2023-08-06T05:43:02;6.93;;;6.30;;
20298;SDS011;10308;42.688;23.256;2023-08-06T05:45:31;5.45;;;5.05;;
20298;SDS011;10308;42.688;23.256;2023-08-06T05:48:04;4.13;;;3.83;;
20298;SDS011;10308;42.688;23.256;2023-08-06T05:50:32;5.20;;;4.80;;
20298;SDS011;10308;42.688;23.256;2023-08-06T05:53:00;4.13;;;3.83;;
20298;SDS011;10308;42.688;23.256;2023-08-06T05:55:31;4.82;;;4.43;;
20298;SDS011;10308;42.688;23.256;2023-08-06T05:58:02;3.88;;;3.58;;
20298;SDS011;10308;42.688;23.256;2023-08-06T06:00:30;3.60;;;3.30;;
20298;SDS011;10308;42.688;23.256;2023-08-06T06:03:06;4.20;;;3.40;;
20298;SDS011;10308;42.688;23.256;2023-08-06T06:05:34;3.30;;;3.10;;
20298;SDS011;10308;42.688;23.256;2023-08-06T06:08:02;3.60;;;3.30;;
20298;SDS011;10308;42.688;23.256;2023-08-06T06:10:30;3.70;;;3.50;;
20298;SDS011;10308;42.688;23.256;2023-08-06T06:13:01;3.90;;;3.60;;
20298;SDS011;10308;42.688;23.256;2023-08-06T06:15:30;3.65;;;3.45;;
20298;SDS011;10308;42.688;23.256;2023-08-06T06:18:00;3.70;;;3.40;;
20298;SDS011;10308;42.688;23.256;2023-08-06T06:20:36;4.00;;;3.70;;
20298;SDS011;10308;42.688;23.256;2023-08-06T06:23:04;3.28;;;3.08;;
20298;SDS011;10308;42.688;23.256;2023-08-06T06:25:32;3.45;;;3.25;;
20298;SDS011;10308;42.688;23.256;2023-08-06T06:28:00;3.58;;;3.28;;
20298;SDS011;10308;42.688;23.256;2023-08-06T06:30:30;3.47;;;3.17;;
20298;SDS011;10308;42.688;23.256;2023-08-06T06:32:58;3.08;;;2.85;;
20298;SDS011;10308;42.688;23.256;2023-08-06T06:35:26;3.55;;;3.35;;
20298;SDS011;10308;42.688;23.256;2023-08-06T06:37:56;3.70;;;3.40;;
20298;SDS011;10308;42.688;23.256;2023-08-06T06:40:26;3.38;;;3.17;;
20298;SDS011;10308;42.688;23.256;2023-08-06T06:42:57;4.03;;;3.70;;
20298;SDS011;10308;42.688;23.256;2023-08-06T06:45:27;3.80;;;3.53;;
20298;SDS011;10308;42.688;23.256;2023-08-06T06:47:54;3.90;;;3.47;;
20298;SDS011;10308;42.688;23.256;2023-08-06T06:50:23;3.55;;;3.30;;
20298;SDS011;10308;42.688;23.256;2023-08-06T06:52:53;3.55;;;3.35;;
20298;SDS011;10308;42.688;23.256;2023-08-06T06:55:31;3.33;;;3.10;;
20298;SDS011;10308;42.688;23.256;2023-08-06T06:58:00;3.50;;;3.20;;
20298;SDS011;10308;42.688;23.256;2023-08-06T07:00:35;3.40;;;3.10;;
20298;SDS011;10308;42.688;23.256;2023-08-06T07:03:06;3.10;;;2.90;;
20298;SDS011;10308;42.688;23.256;2023-08-06T07:05:36;3.80;;;3.47;;
20298;SDS011;10308;42.688;23.256;2023-08-06T07:08:07;3.88;;;3.58;;
20298;SDS011;10308;42.688;23.256;2023-08-06T07:10:36;3.53;;;3.22;;
20298;SDS011;10308;42.688;23.256;2023-08-06T07:13:04;3.33;;;3.13;;
20298;SDS011;10308;42.688;23.256;2023-08-06T07:15:33;4.13;;;3.40;;
20298;SDS011;10308;42.688;23.256;2023-08-06T07:18:03;3.75;;;3.53;;
20298;SDS011;10308;42.688;23.256;2023-08-06T07:20:34;3.10;;;2.90;;
20298;SDS011;10308;42.688;23.256;2023-08-06T07:23:04;3.80;;;3.50;;
20298;SDS011;10308;42.688;23.256;2023-08-06T07:25:32;3.33;;;3.05;;
20298;SDS011;10308;42.688;23.256;2023-08-06T07:28:08;3.70;;;3.40;;
20298;SDS011;10308;42.688;23.256;2023-08-06T07:30:38;3.25;;;3.05;;
20298;SDS011;10308;42.688;23.256;2023-08-06T07:33:08;3.22;;;3.03;;
20298;SDS011;10308;42.688;23.256;2023-08-06T07:35:38;3.35;;;3.08;;
20298;SDS011;10308;42.688;23.256;2023-08-06T07:38:07;3.30;;;3.10;;
20298;SDS011;10308;42.688;23.256;2023-08-06T07:40:37;4.00;;;3.70;;
20298;SDS011;10308;42.688;23.256;2023-08-06T07:43:06;3.45;;;3.25;;
20298;SDS011;10308;42.688;23.256;2023-08-06T07:45:36;3.58;;;3.30;;
20298;SDS011;10308;42.688;23.256;2023-08-06T07:48:06;3.35;;;3.15;;
20298;SDS011;10308;42.688;23.256;2023-08-06T07:50:36;3.47;;;3.17;;
20298;SDS011;10308;42.688;23.256;2023-08-06T07:53:05;3.28;;;2.97;;
20298;SDS011;10308;42.688;23.256;2023-08-06T07:55:35;3.75;;;3.15;;
20298;SDS011;10308;42.688;23.256;2023-08-06T07:58:09;3.17;;;2.97;;
20298;SDS011;10308;42.688;23.256;2023-08-06T08:00:37;3.42;;;3.17;;
20298;SDS011;10308;42.688;23.256;2023-08-06T08:03:09;3.50;;;3.22;;
20298;SDS011;10308;42.688;23.256;2023-08-06T08:05:40;3.40;;;3.08;;
20298;SDS011;10308;42.688;23.256;2023-08-06T08:08:11;3.50;;;3.20;;
20298;SDS011;10308;42.688;23.256;2023-08-06T08:10:41;3.50;;;3.20;;
20298;SDS011;10308;42.688;23.256;2023-08-06T08:13:14;3.70;;;3.50;;
20298;SDS011;10308;42.688;23.256;2023-08-06T08:15:42;3.15;;;2.95;;
20298;SDS011;10308;42.688;23.256;2023-08-06T08:18:12;5.18;;;2.90;;
20298;SDS011;10308;42.688;23.256;2023-08-06T08:20:40;3.22;;;2.90;;
20298;SDS011;10308;42.688;23.256;2023-08-06T08:23:09;2.95;;;2.75;;
20298;SDS011;10308;42.688;23.256;2023-08-06T08:25:37;2.97;;;2.67;;
20298;SDS011;10308;42.688;23.256;2023-08-06T08:28:04;3.35;;;3.05;;
20298;SDS011;10308;42.688;23.256;2023-08-06T08:30:33;3.20;;;2.90;;
20298;SDS011;10308;42.688;23.256;2023-08-06T08:33:01;3.47;;;3.17;;
20298;SDS011;10308;42.688;23.256;2023-08-06T08:35:27;3.45;;;3.15;;
20298;SDS011;10308;42.688;23.256;2023-08-06T08:37:58;3.10;;;2.90;;
20298;SDS011;10308;42.688;23.256;2023-08-06T08:40:27;3.50;;;3.20;;
20298;SDS011;10308;42.688;23.256;2023-08-06T08:43:02;4.22;;;3.65;;
20298;SDS011;10308;42.688;23.256;2023-08-06T08:45:29;3.47;;;3.13;;
20298;SDS011;10308;42.688;23.256;2023-08-06T08:47:59;3.50;;;3.30;;
20298;SDS011;10308;42.688;23.256;2023-08-06T08:50:30;3.55;;;3.35;;
20298;SDS011;10308;42.688;23.256;2023-08-06T08:52:57;3.22;;;2.97;;
20298;SDS011;10308;42.688;23.256;2023-08-06T08:55:24;3.42;;;3.10;;
20298;SDS011;10308;42.688;23.256;2023-08-06T08:57:52;5.15;;;4.65;;
20298;SDS011;10308;42.688;23.256;2023-08-06T09:00:22;5.88;;;4.35;;
20298;SDS011;10308;42.688;23.256;2023-08-06T09:02:52;5.05;;;3.65;;
20298;SDS011;10308;42.688;23.256;2023-08-06T09:05:28;4.30;;;3.90;;
20298;SDS011;10308;42.688;23.256;2023-08-06T09:08:01;4.32;;;3.70;;
20298;SDS011;10308;42.688;23.256;2023-08-06T09:10:33;3.85;;;3.55;;
20298;SDS011;10308;42.688;23.256;2023-08-06T09:13:06;3.75;;;3.45;;
20298;SDS011;10308;42.688;23.256;2023-08-06T09:15:39;4.45;;;3.97;;
20298;SDS011;10308;42.688;23.256;2023-08-06T09:18:09;3.58;;;3.30;;
20298;SDS011;10308;42.688;23.256;2023-08-06T09:20:42;5.30;;;4.82;;
20298;SDS011;10308;42.688;23.256;2023-08-06T09:23:10;4.10;;;3.80;;
20298;SDS011;10308;42.688;23.256;2023-08-06T09:25:41;4.20;;;3.90;;
20298;SDS011;10308;42.688;23.256;2023-08-06T09:28:09;3.60;;;3.30;;
20298;SDS011;10308;42.688;23.256;2023-08-06T09:30:39;3.40;;;3.20;;
20298;SDS011;10308;42.688;23.256;2023-08-06T09:33:08;3.90;;;3.60;;
20298;SDS011;10308;42.688;23.256;2023-08-06T09:35:37;3.10;;;2.90;;
20298;SDS011;10308;42.688;23.256;2023-08-06T09:38:09;5.05;;;4.55;;
20298;SDS011;10308;42.688;23.256;2023-08-06T09:40:41;3.40;;;3.17;;
20298;SDS011;10308;42.688;23.256;2023-08-06T09:43:10;5.53;;;5.03;;
20298;SDS011;10308;42.688;23.256;2023-08-06T09:45:42;3.35;;;3.05;;
20298;SDS011;10308;42.688;23.256;2023-08-06T09:48:13;3.55;;;3.25;;
20298;SDS011;10308;42.688;23.256;2023-08-06T09:50:44;2.72;;;2.53;;
20298;SDS011;10308;42.688;23.256;2023-08-06T09:53:15;3.30;;;3.00;;
20298;SDS011;10308;42.688;23.256;2023-08-06T09:55:45;2.97;;;2.78;;
20298;SDS011;10308;42.688;23.256;2023-08-06T09:58:12;4.47;;;4.07;;
20298;SDS011;10308;42.688;23.256;2023-08-06T10:00:42;3.90;;;3.50;;
20298;SDS011;10308;42.688;23.256;2023-08-06T10:03:10;3.83;;;3.53;;
20298;SDS011;10308;42.688;23.256;2023-08-06T10:05:41;4.65;;;4.25;;
20298;SDS011;10308;42.688;23.256;2023-08-06T10:08:12;2.80;;;2.60;;
20298;SDS011;10308;42.688;23.256;2023-08-06T10:10:44;2.60;;;2.40;;
20298;SDS011;10308;42.688;23.256;2023-08-06T10:13:16;2.97;;;2.78;;
20298;SDS011;10308;42.688;23.256;2023-08-06T10:15:45;3.92;;;3.63;;
20298;SDS011;10308;42.688;23.256;2023-08-06T10:18:16;2.85;;;2.65;;
20298;SDS011;10308;42.688;23.256;2023-08-06T10:20:47;2.90;;;2.70;;
20298;SDS011;10308;42.688;23.256;2023-08-06T10:23:15;3.00;;;2.80;;
20298;SDS011;10308;42.688;23.256;2023-08-06T10:25:53;4.15;;;3.00;;
20298;SDS011;10308;42.688;23.256;2023-08-06T10:28:22;2.75;;;2.50;;
20298;SDS011;10308;42.688;23.256;2023-08-06T10:31:06;3.95;;;2.92;;
20298;SDS011;10308;42.688;23.256;2023-08-06T10:33:44;2.80;;;2.60;;
20298;SDS011;10308;42.688;23.256;2023-08-06T10:36:13;3.00;;;2.80;;
20298;SDS011;10308;42.688;23.256;2023-08-06T10:38:44;2.70;;;2.50;;
20298;SDS011;10308;42.688;23.256;2023-08-06T10:41:21;3.05;;;2.80;;
20298;SDS011;10308;42.688;23.256;2023-08-06T10:43:57;2.63;;;2.40;;
20298;SDS011;10308;42.688;23.256;2023-08-06T10:46:33;3.22;;;2.45;;
20298;SDS011;10308;42.688;23.256;2023-08-06T10:49:04;3.00;;;2.70;;
20298;SDS011;10308;42.688;23.256;2023-08-06T10:51:33;2.70;;;2.50;;
20298;SDS011;10308;42.688;23.256;2023-08-06T10:54:03;2.83;;;2.63;;
20298;SDS011;10308;42.688;23.256;2023-08-06T10:56:39;2.55;;;2.40;;
20298;SDS011;10308;42.688;23.256;2023-08-06T10:59:11;2.90;;;2.70;;
20298;SDS011;10308;42.688;23.256;2023-08-06T11:01:42;2.90;;;2.70;;
20298;SDS011;10308;42.688;23.256;2023-08-06T11:04:11;3.20;;;2.90;;
20298;SDS011;10308;42.688;23.256;2023-08-06T11:06:42;3.22;;;2.90;;
20298;SDS011;10308;42.688;23.256;2023-08-06T11:09:10;4.93;;;3.28;;
20298;SDS011;10308;42.688;23.256;2023-08-06T11:11:46;3.30;;;3.10;;
20298;SDS011;10308;42.688;23.256;2023-08-06T11:14:15;3.97;;;3.67;;
20298;SDS011;10308;42.688;23.256;2023-08-06T11:16:42;3.70;;;3.38;;
20298;SDS011;10308;42.688;23.256;2023-08-06T11:19:12;4.07;;;3.08;;
20298;SDS011;10308;42.688;23.256;2023-08-06T11:21:43;3.75;;;3.35;;
20298;SDS011;10308;42.688;23.256;2023-08-06T11:24:11;3.30;;;3.10;;
20298;SDS011;10308;42.688;23.256;2023-08-06T11:26:43;3.60;;;3.30;;
20298;SDS011;10308;42.688;23.256;2023-08-06T11:29:09;4.10;;;3.80;;
20298;SDS011;10308;42.688;23.256;2023-08-06T11:31:37;3.25;;;3.05;;
20298;SDS011;10308;42.688;23.256;2023-08-06T11:34:05;3.92;;;3.63;;
20298;SDS011;10308;42.688;23.256;2023-08-06T11:36:40;4.38;;;3.97;;
20298;SDS011;10308;42.688;23.256;2023-08-06T11:39:08;3.75;;;3.55;;
20298;SDS011;10308;42.688;23.256;2023-08-06T11:41:38;4.00;;;3.70;;
20298;SDS011;10308;42.688;23.256;2023-08-06T11:44:12;3.80;;;3.50;;
20298;SDS011;10308;42.688;23.256;2023-08-06T11:46:53;3.72;;;3.50;;
20298;SDS011;10308;42.688;23.256;2023-08-06T11:49:37;4.20;;;3.90;;
20298;SDS011;10308;42.688;23.256;2023-08-06T11:52:09;3.97;;;3.67;;
20298;SDS011;10308;42.688;23.256;2023-08-06T11:54:42;3.67;;;3.38;;
20298;SDS011;10308;42.688;23.256;2023-08-06T11:57:11;3.97;;;3.67;;
20298;SDS011;10308;42.688;23.256;2023-08-06T11:59:41;4.65;;;4.25;;
20298;SDS011;10308;42.688;23.256;2023-08-06T12:02:09;4.32;;;4.03;;
20298;SDS011;10308;42.688;23.256;2023-08-06T12:07:28;4.82;;;4.45;;
20298;SDS011;10308;42.688;23.256;2023-08-06T12:09:56;5.00;;;4.65;;
20298;SDS011;10308;42.688;23.256;2023-08-06T12:12:23;5.20;;;4.70;;
20298;SDS011;10308;42.688;23.256;2023-08-06T12:14:55;5.43;;;5.03;;
20298;SDS011;10308;42.688;23.256;2023-08-06T12:17:22;4.70;;;4.40;;
20298;SDS011;10308;42.688;23.256;2023-08-06T12:19:51;5.35;;;4.80;;
20298;SDS011;10308;42.688;23.256;2023-08-06T12:22:19;5.50;;;5.00;;
20298;SDS011;10308;42.688;23.256;2023-08-06T12:24:47;6.40;;;4.93;;
20298;SDS011;10308;42.688;23.256;2023-08-06T12:27:19;4.97;;;4.57;;
20298;SDS011;10308;42.688;23.256;2023-08-06T12:29:48;5.22;;;4.82;;
20298;SDS011;10308;42.688;23.256;2023-08-06T12:32:23;6.75;;;5.05;;
20298;SDS011;10308;42.688;23.256;2023-08-06T12:34:52;6.38;;;5.10;;
20298;SDS011;10308;42.688;23.256;2023-08-06T12:37:22;5.57;;;5.18;;
20298;SDS011;10308;42.688;23.256;2023-08-06T12:39:51;5.60;;;5.15;;
20298;SDS011;10308;42.688;23.256;2023-08-06T12:42:21;5.40;;;5.00;;
20298;SDS011;10308;42.688;23.256;2023-08-06T12:44:50;6.03;;;5.63;;
20298;SDS011;10308;42.688;23.256;2023-08-06T12:47:22;5.40;;;4.90;;
20298;SDS011;10308;42.688;23.256;2023-08-06T12:49:50;5.95;;;5.35;;
20298;SDS011;10308;42.688;23.256;2023-08-06T12:52:21;5.80;;;5.25;;
20298;SDS011;10308;42.688;23.256;2023-08-06T12:54:49;5.80;;;5.20;;
20298;SDS011;10308;42.688;23.256;2023-08-06T12:57:17;5.57;;;5.15;;
20298;SDS011;10308;42.688;23.256;2023-08-06T12:59:44;5.57;;;5.07;;
20298;SDS011;10308;42.688;23.256;2023-08-06T13:02:13;5.35;;;4.95;;
20298;SDS011;10308;42.688;23.256;2023-08-06T13:04:45;7.60;;;5.00;;
20298;SDS011;10308;42.688;23.256;2023-08-06T13:07:16;5.80;;;5.40;;
20298;SDS011;10308;42.688;23.256;2023-08-06T13:09:47;6.15;;;4.95;;
20298;SDS011;10308;42.688;23.256;2023-08-06T13:12:15;5.55;;;4.90;;
20298;SDS011;10308;42.688;23.256;2023-08-06T13:14:45;9.82;;;5.05;;
20298;SDS011;10308;42.688;23.256;2023-08-06T13:17:16;5.63;;;5.13;;
20298;SDS011;10308;42.688;23.256;2023-08-06T13:19:51;5.63;;;5.13;;
20298;SDS011;10308;42.688;23.256;2023-08-06T13:22:21;5.47;;;5.07;;
20298;SDS011;10308;42.688;23.256;2023-08-06T13:24:52;5.70;;;5.20;;
20298;SDS011;10308;42.688;23.256;2023-08-06T13:27:19;5.60;;;4.60;;
20298;SDS011;10308;42.688;23.256;2023-08-06T13:29:47;5.30;;;4.82;;
20298;SDS011;10308;42.688;23.256;2023-08-06T13:32:13;5.88;;;5.35;;
20298;SDS011;10308;42.688;23.256;2023-08-06T13:34:43;5.13;;;4.82;;
20298;SDS011;10308;42.688;23.256;2023-08-06T13:37:16;5.20;;;4.80;;
20298;SDS011;10308;42.688;23.256;2023-08-06T13:39:47;5.20;;;4.80;;
20298;SDS011;10308;42.688;23.256;2023-08-06T13:42:17;5.35;;;4.90;;
20298;SDS011;10308;42.688;23.256;2023-08-06T13:44:47;5.20;;;4.78;;
20298;SDS011;10308;42.688;23.256;2023-08-06T13:47:18;5.60;;;5.10;;
20298;SDS011;10308;42.688;23.256;2023-08-06T13:49:46;5.65;;;5.25;;
20298;SDS011;10308;42.688;23.256;2023-08-06T13:52:18;5.20;;;4.85;;
20298;SDS011;10308;42.688;23.256;2023-08-06T13:54:46;5.22;;;4.72;;
20298;SDS011;10308;42.688;23.256;2023-08-06T13:57:14;5.75;;;5.35;;
20298;SDS011;10308;42.688;23.256;2023-08-06T13:59:42;4.63;;;4.32;;
20298;SDS011;10308;42.688;23.256;2023-08-06T14:02:11;5.20;;;4.80;;
20298;SDS011;10308;42.688;23.256;2023-08-06T14:04:39;5.13;;;4.60;;
20298;SDS011;10308;42.688;23.256;2023-08-06T14:07:07;5.00;;;4.60;;
20298;SDS011;10308;42.688;23.256;2023-08-06T14:09:35;5.15;;;4.65;;
20298;SDS011;10308;42.688;23.256;2023-08-06T14:12:03;4.72;;;4.32;;
20298;SDS011;10308;42.688;23.256;2023-08-06T14:14:31;5.45;;;4.57;;
20298;SDS011;10308;42.688;23.256;2023-08-06T14:17:02;5.00;;;4.60;;
20298;SDS011;10308;42.688;23.256;2023-08-06T14:19:32;5.00;;;4.57;;
20298;SDS011;10308;42.688;23.256;2023-08-06T14:22:05;4.97;;;4.57;;
20298;SDS011;10308;42.688;23.256;2023-08-06T14:24:37;4.07;;;3.70;;
20298;SDS011;10308;42.688;23.256;2023-08-06T14:27:06;4.80;;;4.40;;
20298;SDS011;10308;42.688;23.256;2023-08-06T14:29:33;4.72;;;4.32;;
20298;SDS011;10308;42.688;23.256;2023-08-06T14:31:59;4.60;;;4.20;;
20298;SDS011;10308;42.688;23.256;2023-08-06T14:34:27;3.92;;;3.63;;
20298;SDS011;10308;42.688;23.256;2023-08-06T14:36:58;3.00;;;2.80;;
20298;SDS011;10308;42.688;23.256;2023-08-06T14:39:25;3.65;;;3.10;;
20298;SDS011;10308;42.688;23.256;2023-08-06T14:41:57;3.15;;;2.95;;
20298;SDS011;10308;42.688;23.256;2023-08-06T14:44:23;3.58;;;3.28;;
20298;SDS011;10308;42.688;23.256;2023-08-06T14:46:52;3.83;;;3.50;;
20298;SDS011;10308;42.688;23.256;2023-08-06T14:49:19;4.00;;;3.70;;
20298;SDS011;10308;42.688;23.256;2023-08-06T14:51:47;3.67;;;3.47;;